Terminal Aerodrome Forecast
Issued by NWS

Home | Current Version | Previous Version | Text Only | Print | Product List | Glossary On
Versions: 1 2 3 4 5 6 7 8 9 10 11 12
000
FTUS44 KEPZ 301700
TAFTCS
TAF
KTCS 301724Z 3018/3118 04007KT P6SM -SHRA OVC015
     FM310600 15004KT 4SM -RA OVC010
     FM311200 12003KT 6SM -SHRA OVC010
      TEMPO 3112/3115 2SM BR
     FM311700 15003KT P6SM SCT020 BKN080=

USA.gov is the U.S. government's official web portal to all federal, state and local government web resources and services.